Wilmington, OH

4:49 AM EDT on September 01, 2014 (GMT -0400)
Country Manor | Change Station
CLOSE
Current Station
Personal Weather Station
Location: Wilmington, OH
Elevation: 1004 ft
Nearby Weather Stations

Elev 1004 ft 39.44 °N, 83.90 °W | Updated 3 seconds ago

Overcast
Overcast
71.1 °F
Feels Like 71.1 °F
N
0.0
Wind Variable Wind from SSW
Gusts 3.0 mph

Today
High -- | Low -- °F
--% Chance of Precip.
Yesterday
High -- | Low -- °F
Precip. -- in
7:03 AM 8:06 PM
Waxing Crescent, 39% visible
Pressure 30.01 in
Visibility 1.8 miles
Clouds Overcast 200 ft
Dew Point 69 °F
Humidity 94%
Rainfall 0.00 in
Snow Depth Not available.
UV 0 out of 12
Pollen 2.30 out of 12
Ozone Good
PM2.5 Good
Flu Activity Not available.
SPECI KILN 010825Z AUTO 21005KT 1 3/4SM BR OVC002 22/21 A3001 RMK AO2 T02170206

More Conditions Fewer Conditions

Pressure 30.01 in
Visibility 1.8 miles
Clouds Overcast 200 ft
Dew Point 69 °F
Humidity 94%
Rainfall 0.00 in
Snow Depth Not available.
UV 0 out of 12
Pollen 2.30 out of 12
Ozone Good
PM2.5 Good
Flu Activity Not available.
SPECI KILN 010825Z AUTO 21005KT 1 3/4SM BR OVC002 22/21 A3001 RMK AO2 T02170206

More Conditions Fewer Conditions

10-Day Weather Forecast

Almanac

Astronomy

Sep. 01, 2014 Rise Set
Actual Time 7:03 AM EDT 8:06 PM EDT
Civil Twilight 6:36 AM EDT 8:33 PM EDT
Nautical Twilight 6:03 AM EDT 9:06 PM EDT
Astronomical Twilight 5:29 AM EDT 9:40 PM EDT
Moon 1:46 PM EDT No Moon Set
Length of Visible Light 13h 57m
Length of Day
13h 02m
Tomorrow will be 2m 28s shorter.
Waxing Crescent, 39% of the Moon is Illuminated
Today
Waxing Crescent
Sep 2
First Quarter
Sep 8
Full
Sep 15
Last Quarter
Sep 24
New

Today's Extremes

State Highs State Lows

Community

WunderPhotos

Upload Photos

1,749,178 photos uploaded!

Nearby

Air Quality

  Air Quality AQ Index Pollutant
Yesterday Good
PM2.5
Yesterday Good
OZONE
Current Good
PM2.5
Current Good
OZONE
Monday Moderate
PM2.5
Monday Good
OZONE
Tuesday Moderate
PM2.5
Tuesday Good
OZONE

Snow Depth

Station Depth Elevation
No new snow has been reported.

Earthquake Activity

City Distance Mag. Time & Date
No recent earthquake activity has been reported nearby.
Minimum magnitude displayed is 2.5.

Coastal Water Temperatures

Place Temperature
No Stations Reporting

Nearby Weather Stations